Time;durP1;ratioP1;P1;durP2;ratioP2;P2;SDS_P1;SDS_P2;PMS_P1;PMS_P2;Temp;Humidity;BMP_temperature;BMP_pressure;BME280_temperature;BME280_humidity;BME280_pressure;Samples;Min_cycle;Max_cycle;Signal;HPM_P1;HPM_P2
2021/06/19 00:01:19;;;;;;;;;;;;;;;25.30;52.11;100920.22;2053408;28;4148;-74
2021/06/19 00:02:46;;;;;;;;;;;;;;;25.29;52.21;100918.59;2053163;28;4212;-74
2021/06/19 00:04:13;;;;;;;;;;;;;;;25.28;52.23;100914.09;2053719;28;4091;-75
2021/06/19 00:05:40;;;;;;;;;;;;;;;25.27;52.21;100918.13;2052495;28;4388;-74
2021/06/19 00:07:07;;;;;;;;;;;;;;;25.27;52.26;100914.44;2053167;28;4124;-75
2021/06/19 00:08:33;;;;;;;;;;;;;;;25.26;52.30;100913.63;2052814;28;4098;-74
2021/06/19 00:09:59;;;;;;;;;;;;;;;25.25;52.29;100914.00;2053151;28;4087;-74
2021/06/19 00:11:26;;;;;;;;;;;;;;;25.25;52.16;100911.13;2052664;28;4062;-75
2021/06/19 00:12:52;;;;;;;;;;;;;;;25.24;52.28;100916.03;2053096;28;4107;-74
2021/06/19 00:14:19;;;;;;;;;;;;;;;25.25;52.04;100908.25;2052254;28;4383;-74
2021/06/19 00:15:46;;;;;;;;;;;;;;;25.23;52.28;100914.38;2052877;28;4178;-74
2021/06/19 00:17:13;;;;;;;;;;;;;;;25.22;52.29;100906.16;2051572;28;3907;-75
2021/06/19 00:18:40;;;;;;;;;;;;;;;25.22;52.30;100915.56;2052679;28;4947;-74
2021/06/19 00:20:07;;;;;;;;;;;;;;;25.22;52.17;100909.84;2052937;28;4159;-74
2021/06/19 00:21:33;;;;;;;;;;;;;;;25.21;52.36;100904.53;2052320;28;4192;-75
2021/06/19 00:22:59;;;;;;;;;;;;;;;25.21;52.16;100916.78;2052249;28;4445;-74
2021/06/19 00:24:26;;;;;;;;;;;;;;;25.22;52.24;100914.75;2051938;28;4195;-74
2021/06/19 00:25:52;;;;;;;;;;;;;;;25.20;52.17;100917.19;2053837;28;4126;-76
2021/06/19 00:27:18;;;;;;;;;;;;;;;25.20;52.31;100918.03;2052918;28;3876;-75
2021/06/19 00:28:43;;;;;;;;;;;;;;;25.19;52.36;100916.34;2053141;28;4630;-85
2021/06/19 00:30:10;;;;;;;;;;;;;;;25.18;52.22;100919.59;2053369;28;4040;-88
2021/06/19 00:31:37;;;;;;;;;;;;;;;25.19;52.35;100916.34;2053703;28;4082;-88
2021/06/19 00:33:04;;;;;;;;;;;;;;;25.18;52.34;100914.69;2044857;28;3898;-80
2021/06/19 00:34:31;;;;;;;;;;;;;;;25.19;52.40;100916.34;2052274;28;4028;-83
2021/06/19 00:35:56;;;;;;;;;;;;;;;25.19;52.43;100912.66;2053595;28;3930;-84
2021/06/19 00:37:23;;;;;;;;;;;;;;;25.18;52.47;100923.28;2053150;28;4058;-86
2021/06/19 00:38:50;;;;;;;;;;;;;;;25.16;52.54;100914.25;2052104;28;4203;-89
2021/06/19 00:40:17;;;;;;;;;;;;;;;25.18;52.51;100914.69;2052685;28;4090;-89
2021/06/19 00:41:44;;;;;;;;;;;;;;;25.15;52.50;100909.72;2052937;28;4256;-88
2021/06/19 00:43:11;;;;;;;;;;;;;;;25.16;52.59;100911.38;2053092;28;4094;-87
2021/06/19 00:44:38;;;;;;;;;;;;;;;25.15;52.40;100914.63;2051827;28;4156;-91
2021/06/19 00:46:05;;;;;;;;;;;;;;;25.14;52.54;100913.75;2052312;28;4422;-86
2021/06/19 00:47:32;;;;;;;;;;;;;;;25.14;52.38;100910.06;2052302;28;4231;-86
2021/06/19 00:48:58;;;;;;;;;;;;;;;25.13;52.46;100911.28;2053481;28;3923;-75
2021/06/19 00:50:24;;;;;;;;;;;;;;;25.14;52.64;100908.03;2053394;28;4057;-77
2021/06/19 00:51:50;;;;;;;;;;;;;;;25.17;52.66;100913.06;2053235;28;4426;-76
2021/06/19 00:53:17;;;;;;;;;;;;;;;25.18;52.64;100903.25;2053780;28;3803;-80
2021/06/19 00:54:44;;;;;;;;;;;;;;;25.22;52.66;100903.31;2052602;28;4036;-77
2021/06/19 00:56:11;;;;;;;;;;;;;;;25.23;52.59;100911.53;2051981;28;4030;-77
2021/06/19 00:57:38;;;;;;;;;;;;;;;25.24;52.55;100906.63;2051981;28;4027;-77
2021/06/19 00:59:04;;;;;;;;;;;;;;;25.25;52.55;100902.53;2053462;28;3895;-81
2021/06/19 01:00:31;;;;;;;;;;;;;;;25.25;52.74;100897.66;2052634;28;4392;-79
2021/06/19 01:01:57;;;;;;;;;;;;;;;25.25;52.50;100897.66;2053512;28;3806;-75
2021/06/19 01:03:24;;;;;;;;;;;;;;;25.27;52.78;100894.41;2054080;28;3998;-74
2021/06/19 01:04:49;;;;;;;;;;;;;;;25.26;52.64;100890.72;2052595;28;4218;-73
2021/06/19 01:06:16;;;;;;;;;;;;;;;25.27;52.75;100888.69;2052369;28;4203;-72
2021/06/19 01:07:42;;;;;;;;;;;;;;;25.27;52.86;100883.78;2052299;28;4234;-74
2021/06/19 01:09:08;;;;;;;;;;;;;;;25.29;52.67;100889.13;2053476;28;3917;-74
2021/06/19 01:10:35;;;;;;;;;;;;;;;25.29;52.90;100892.81;2051330;28;4213;-76
2021/06/19 01:12:01;;;;;;;;;;;;;;;25.29;52.87;100892.81;2052409;28;4442;-74
2021/06/19 01:13:28;;;;;;;;;;;;;;;25.30;52.74;100897.31;2052824;28;4200;-78
2021/06/19 01:14:55;;;;;;;;;;;;;;;25.29;52.88;100892.81;2053138;28;3842;-79
2021/06/19 01:16:22;;;;;;;;;;;;;;;25.30;52.90;100890.78;2054603;28;3807;-84
2021/06/19 01:17:49;;;;;;;;;;;;;;;25.30;52.93;100885.03;2052877;28;4054;-82
2021/06/19 01:19:15;;;;;;;;;;;;;;;25.30;52.88;100882.19;2053521;28;4082;-81
2021/06/19 01:20:41;;;;;;;;;;;;;;;25.31;53.00;100887.53;2053395;28;4288;-84
2021/06/19 01:22:07;;;;;;;;;;;;;;;25.32;52.84;100891.22;2053979;28;3934;-85
2021/06/19 01:23:34;;;;;;;;;;;;;;;25.31;52.91;100884.69;2054210;28;4194;-80
2021/06/19 01:25:00;;;;;;;;;;;;;;;25.31;52.84;100890.41;2053971;28;4112;-80
2021/06/19 01:26:26;;;;;;;;;;;;;;;25.31;52.95;100896.13;2053641;28;4032;-80
2021/06/19 01:27:53;;;;;;;;;;;;;;;25.31;52.85;100896.13;2052828;28;4078;-81
2021/06/19 01:29:18;;;;;;;;;;;;;;;25.31;52.87;100896.13;2052053;28;3863;-81
2021/06/19 01:30:47;;;;;;;;;;;;;;;25.32;52.90;100894.91;2051631;28;4225;-79
2021/06/19 01:32:14;;;;;;;;;;;;;;;25.32;52.89;100894.91;2052728;28;4091;-78
2021/06/19 01:33:41;;;;;;;;;;;;;;;25.32;52.96;100889.19;2053027;28;4042;-81
2021/06/19 01:35:07;;;;;;;;;;;;;;;25.33;52.89;100890.00;2054588;28;4152;-80
2021/06/19 01:36:34;;;;;;;;;;;;;;;25.33;52.89;100890.84;2052994;28;4084;-79
2021/06/19 01:38:00;;;;;;;;;;;;;;;25.33;53.03;100888.00;2053179;28;4071;-80
2021/06/19 01:39:27;;;;;;;;;;;;;;;25.33;52.95;100890.00;2052760;28;4014;-79
2021/06/19 01:40:54;;;;;;;;;;;;;;;25.33;53.02;100896.59;2053504;28;4005;-80
2021/06/19 01:42:20;;;;;;;;;;;;;;;25.33;52.97;100888.00;2053276;28;3811;-81
2021/06/19 01:43:46;;;;;;;;;;;;;;;25.33;52.82;100888.00;2053691;28;4242;-80
2021/06/19 01:45:12;;;;;;;;;;;;;;;25.35;53.00;100889.63;2054424;28;3897;-79
2021/06/19 01:46:39;;;;;;;;;;;;;;;25.35;52.88;100893.31;2053272;28;4133;-79
2021/06/19 01:48:06;;;;;;;;;;;;;;;25.35;52.98;100886.78;2053690;28;3915;-81
2021/06/19 01:49:33;;;;;;;;;;;;;;;25.35;52.90;100895.38;2052862;28;4202;-82
2021/06/19 01:50:59;;;;;;;;;;;;;;;25.36;52.92;100891.28;2053875;28;4009;-83
2021/06/19 01:52:26;;;;;;;;;;;;;;;25.35;52.96;100883.91;2053574;28;4040;-82
2021/06/19 01:53:53;;;;;;;;;;;;;;;25.36;53.06;100891.28;2053368;28;3916;-79
2021/06/19 01:55:20;;;;;;;;;;;;;;;25.34;52.98;100888.81;2054151;28;3905;-80
2021/06/19 01:56:47;;;;;;;;;;;;;;;25.36;53.00;100886.38;2053290;28;4225;-79
2021/06/19 01:58:14;;;;;;;;;;;;;;;25.36;52.84;100885.56;2053797;28;4071;-80
2021/06/19 01:59:40;;;;;;;;;;;;;;;25.35;52.90;100879.00;2060917;28;4211;-80
2021/06/19 02:01:06;;;;;;;;;;;;;;;25.36;53.00;100874.09;2061833;28;4231;-80
2021/06/19 02:02:33;;;;;;;;;;;;;;;25.36;52.79;100876.97;2060930;28;4021;-79
2021/06/19 02:03:59;;;;;;;;;;;;;;;25.36;52.84;100874.91;2061741;28;4068;-79
2021/06/19 02:05:26;;;;;;;;;;;;;;;25.37;53.00;100872.91;2061446;28;4046;-79
2021/06/19 02:06:52;;;;;;;;;;;;;;;25.36;52.84;100874.09;2061549;28;3936;-79
2021/06/19 02:08:19;;;;;;;;;;;;;;;25.37;52.84;100872.91;2061197;28;4251;-79
2021/06/19 02:09:45;;;;;;;;;;;;;;;25.37;52.97;100867.19;2063118;28;4056;-78
2021/06/19 02:11:10;;;;;;;;;;;;;;;25.36;53.02;100874.09;2061175;28;3962;-79
2021/06/19 02:12:37;;;;;;;;;;;;;;;25.35;52.81;100867.53;2061857;28;4013;-79
2021/06/19 02:14:04;;;;;;;;;;;;;;;25.36;52.85;100868.38;2062621;28;4052;-81
2021/06/19 02:15:30;;;;;;;;;;;;;;;25.36;52.71;100865.50;2062918;28;4859;-82
2021/06/19 02:16:56;;;;;;;;;;;;;;;25.36;52.90;100871.22;2061417;28;3910;-82
2021/06/19 02:18:22;;;;;;;;;;;;;;;25.37;52.86;100875.78;2062474;28;3764;-87
2021/06/19 02:19:49;;;;;;;;;;;;;;;25.36;52.85;100871.22;2062848;28;4381;-86
2021/06/19 02:21:16;;;;;;;;;;;;;;;25.36;52.81;100874.09;2061400;28;4046;-86
2021/06/19 02:22:43;;;;;;;;;;;;;;;25.35;53.01;100873.28;2061501;28;4051;-87
2021/06/19 02:24:09;;;;;;;;;;;;;;;25.36;52.82;100868.38;2061951;28;3995;-86
2021/06/19 02:25:36;;;;;;;;;;;;;;;25.36;52.95;100868.38;2062138;28;4170;-86
2021/06/19 02:27:02;;;;;;;;;;;;;;;25.36;52.88;100868.38;2061481;28;3894;-87
2021/06/19 02:28:29;;;;;;;;;;;;;;;25.36;52.95;100876.97;2061521;28;4020;-85
2021/06/19 02:29:56;;;;;;;;;;;;;;;25.35;52.92;100872.44;2062978;28;3931;-80
2021/06/19 02:31:23;;;;;;;;;;;;;;;25.35;52.82;100875.31;2062109;28;3922;-80
2021/06/19 02:32:50;;;;;;;;;;;;;;;25.35;52.99;100870.41;2062528;28;4031;-87
2021/06/19 02:34:16;;;;;;;;;;;;;;;25.36;52.93;100876.97;2062707;28;4080;-90
2021/06/19 02:35:42;;;;;;;;;;;;;;;25.35;52.97;100879.00;2061113;28;4241;-86
2021/06/19 02:37:09;;;;;;;;;;;;;;;25.36;52.87;100876.97;2061860;28;4075;-76
2021/06/19 02:38:36;;;;;;;;;;;;;;;25.36;52.96;100886.38;2061973;28;4028;-78
2021/06/19 02:40:02;;;;;;;;;;;;;;;25.36;52.85;100885.56;2061989;28;4078;-82
2021/06/19 02:41:28;;;;;;;;;;;;;;;25.37;53.05;100887.22;2061847;28;4006;-82
2021/06/19 02:42:53;;;;;;;;;;;;;;;25.35;52.89;100879.00;2062400;28;3924;-82
2021/06/19 02:44:20;;;;;;;;;;;;;;;25.37;52.89;100878.63;2063121;28;4217;-81
2021/06/19 02:45:46;;;;;;;;;;;;;;;25.35;52.91;100884.72;2061229;28;4367;-81
2021/06/19 02:47:13;;;;;;;;;;;;;;;25.33;52.93;100864.22;2061692;28;4312;-82
2021/06/19 02:48:40;;;;;;;;;;;;;;;25.35;52.88;100869.59;2061324;28;4015;-81
2021/06/19 02:50:07;;;;;;;;;;;;;;;25.35;52.88;100866.72;2062348;28;4128;-82
2021/06/19 02:51:33;;;;;;;;;;;;;;;25.35;53.04;100867.53;2062630;28;4202;-81
2021/06/19 02:53:00;;;;;;;;;;;;;;;25.35;52.98;100873.28;2062050;28;4078;-81
2021/06/19 02:54:26;;;;;;;;;;;;;;;25.36;53.04;100876.97;2062425;28;4196;-83
2021/06/19 02:55:52;;;;;;;;;;;;;;;25.36;52.85;100879.81;2061977;28;4081;-83
2021/06/19 02:57:19;;;;;;;;;;;;;;;25.35;52.88;100881.03;2060776;28;4042;-83
2021/06/19 02:58:45;;;;;;;;;;;;;;;25.35;52.97;100883.91;2061992;28;4208;-83
2021/06/19 03:00:11;;;;;;;;;;;;;;;25.35;52.92;100883.91;2061268;28;3877;-84
2021/06/19 03:01:38;;;;;;;;;;;;;;;25.35;53.04;100889.63;2061733;28;4277;-83
2021/06/19 03:03:05;;;;;;;;;;;;;;;25.35;52.94;100887.59;2061426;28;3826;-87
2021/06/19 03:04:32;;;;;;;;;;;;;;;25.35;52.92;100889.63;2061918;28;4282;-79
2021/06/19 03:06:01;;;;;;;;;;;;;;;25.34;53.02;100883.09;2061310;28;4113;-78
2021/06/19 03:07:26;;;;;;;;;;;;;;;25.36;52.93;100891.28;2060257;28;4215;-79
2021/06/19 03:08:53;;;;;;;;;;;;;;;25.35;53.01;100889.63;2062452;28;4233;-79
2021/06/19 03:10:20;;;;;;;;;;;;;;;25.35;52.91;100883.91;2062543;28;4197;-79
2021/06/19 03:11:47;;;;;;;;;;;;;;;25.35;52.86;100886.78;2061846;28;4192;-78
2021/06/19 03:13:14;;;;;;;;;;;;;;;25.35;52.93;100887.59;2060163;28;4081;-78
2021/06/19 03:14:41;;;;;;;;;;;;;;;25.35;52.88;100889.63;2061708;28;4178;-79
2021/06/19 03:16:07;;;;;;;;;;;;;;;25.35;52.96;100883.91;2061843;28;4070;-79
2021/06/19 03:17:34;;;;;;;;;;;;;;;25.35;53.11;100886.78;2060412;28;4204;-79
2021/06/19 03:19:01;;;;;;;;;;;;;;;25.32;53.06;100885.50;2061952;28;4117;-78
2021/06/19 03:20:28;;;;;;;;;;;;;;;25.33;53.01;100887.13;2060961;28;4210;-77
2021/06/19 03:21:55;;;;;;;;;;;;;;;25.33;53.29;100888.00;2061317;28;4033;-85
2021/06/19 03:23:22;;;;;;;;;;;;;;;25.34;53.02;100888.81;2061849;28;4093;-75
2021/06/19 03:24:48;;;;;;;;;;;;;;;25.34;53.04;100885.94;2061321;28;4203;-77
2021/06/19 03:26:15;;;;;;;;;;;;;;;25.34;52.96;100888.81;2061811;28;3923;-77
2021/06/19 03:27:42;;;;;;;;;;;;;;;25.35;53.12;100886.78;2061271;28;4032;-77
2021/06/19 03:29:08;;;;;;;;;;;;;;;25.35;53.02;100893.31;2062106;28;3978;-76
2021/06/19 03:30:34;;;;;;;;;;;;;;;25.35;53.06;100893.31;2059532;28;4153;-78
2021/06/19 03:32:01;;;;;;;;;;;;;;;25.35;53.21;100884.72;2060840;28;4038;-77
2021/06/19 03:33:28;;;;;;;;;;;;;;;25.34;53.21;100891.69;2061003;28;4071;-77
2021/06/19 03:34:55;;;;;;;;;;;;;;;25.35;53.19;100883.91;2061452;28;4096;-77
2021/06/19 03:36:21;;;;;;;;;;;;;;;25.35;53.07;100892.50;2061635;28;3880;-77
2021/06/19 03:37:48;;;;;;;;;;;;;;;25.35;53.20;100896.19;2061355;28;4025;-77
2021/06/19 03:39:15;;;;;;;;;;;;;;;25.36;53.24;100894.13;2061000;28;3939;-77
2021/06/19 03:40:43;;;;;;;;;;;;;;;25.35;53.11;100887.59;2060773;28;4037;-77
2021/06/19 03:42:10;;;;;;;;;;;;;;;25.36;53.14;100891.28;2061020;28;3943;-77
2021/06/19 03:43:37;;;;;;;;;;;;;;;25.36;53.18;100891.28;2061737;28;4193;-77
2021/06/19 03:45:04;;;;;;;;;;;;;;;25.36;53.15;100888.41;2061499;28;4034;-78
2021/06/19 03:46:31;;;;;;;;;;;;;;;25.35;53.33;100884.72;2059557;28;4368;-77
2021/06/19 03:47:58;;;;;;;;;;;;;;;25.35;53.12;100881.88;2061983;28;4076;-77
2021/06/19 03:49:25;;;;;;;;;;;;;;;25.35;53.28;100884.72;2060436;28;4036;-76
2021/06/19 03:50:51;;;;;;;;;;;;;;;25.36;53.17;100882.69;2061528;28;4100;-77
2021/06/19 03:52:18;;;;;;;;;;;;;;;25.36;53.29;100885.56;2060913;28;3976;-77
2021/06/19 03:53:43;;;;;;;;;;;;;;;25.37;53.36;100887.22;2061786;28;4248;-77
2021/06/19 03:55:10;;;;;;;;;;;;;;;25.36;53.29;100894.97;2061196;28;4093;-77
2021/06/19 03:56:35;;;;;;;;;;;;;;;25.36;53.38;100888.41;2060002;28;4328;-77
2021/06/19 03:58:02;;;;;;;;;;;;;;;25.37;53.31;100892.94;2045669;28;4142;-78
2021/06/19 03:59:28;;;;;;;;;;;;;;;25.36;53.19;100900.69;2044311;28;4027;-77
2021/06/19 04:00:55;;;;;;;;;;;;;;;25.37;53.31;100901.53;2045247;28;4150;-77
2021/06/19 04:02:20;;;;;;;;;;;;;;;25.37;53.34;100898.69;2045598;28;3889;-77
2021/06/19 04:03:47;;;;;;;;;;;;;;;25.36;53.33;100894.13;2044946;28;4278;-75
2021/06/19 04:05:14;;;;;;;;;;;;;;;25.37;53.32;100898.69;2045356;28;3797;-75
2021/06/19 04:06:41;;;;;;;;;;;;;;;25.36;53.44;100899.88;2045029;28;4051;-75
2021/06/19 04:08:07;;;;;;;;;;;;;;;25.36;53.28;100894.97;2044757;28;3831;-74
2021/06/19 04:09:34;;;;;;;;;;;;;;;25.36;53.42;100892.09;2045217;28;4035;-75
2021/06/19 04:11:01;;;;;;;;;;;;;;;25.36;53.33;100894.97;2044979;28;4037;-75
2021/06/19 04:12:28;;;;;;;;;;;;;;;25.36;53.45;100899.88;2044039;28;4207;-75
2021/06/19 04:13:55;;;;;;;;;;;;;;;25.36;53.29;100892.09;2044915;28;3804;-75
2021/06/19 04:15:22;;;;;;;;;;;;;;;25.36;53.46;100889.22;2044800;28;4100;-75
2021/06/19 04:16:48;;;;;;;;;;;;;;;25.36;53.31;100879.81;2043806;28;5816;-74
2021/06/19 04:18:15;;;;;;;;;;;;;;;25.36;53.33;100883.50;2045463;28;3886;-74
2021/06/19 04:19:42;;;;;;;;;;;;;;;25.37;53.49;100890.09;2044558;28;4020;-74
2021/06/19 04:21:09;;;;;;;;;;;;;;;25.37;53.45;100887.22;2044844;28;3882;-75
2021/06/19 04:22:35;;;;;;;;;;;;;;;25.37;53.26;100892.94;2044945;28;4219;-74
2021/06/19 04:24:02;;;;;;;;;;;;;;;25.37;53.31;100890.09;2045457;28;4063;-74
2021/06/19 04:25:28;;;;;;;;;;;;;;;25.37;53.47;100898.69;2045670;28;4214;-74
2021/06/19 04:26:55;;;;;;;;;;;;;;;25.37;53.54;100901.53;2044882;28;3874;-75
2021/06/19 04:28:22;;;;;;;;;;;;;;;25.37;53.49;100895.81;2045367;28;3891;-75
2021/06/19 04:29:48;;;;;;;;;;;;;;;25.36;53.52;100903.56;2044944;28;4028;-75
2021/06/19 04:31:14;;;;;;;;;;;;;;;25.36;53.34;100912.16;2044383;28;4065;-75
2021/06/19 04:32:41;;;;;;;;;;;;;;;25.36;53.60;100906.41;2044489;28;4077;-75
2021/06/19 04:34:09;;;;;;;;;;;;;;;25.37;53.31;100904.41;2044718;28;4302;-75
2021/06/19 04:35:36;;;;;;;;;;;;;;;25.37;53.53;100904.41;2044645;28;4202;-75
2021/06/19 04:37:03;;;;;;;;;;;;;;;25.37;53.62;100898.69;2044486;28;4912;-75
2021/06/19 04:38:30;;;;;;;;;;;;;;;25.36;53.53;100897.00;2044607;28;4226;-77
2021/06/19 04:40:05;;;;;;;;;;;;;;;25.37;53.54;100892.94;2043996;28;4050;-78
2021/06/19 04:41:47;;;;;;;;;;;;;;;25.37;53.57;100893.78;2044494;28;4260;-78
2021/06/19 04:43:14;;;;;;;;;;;;;;;25.37;53.36;100892.94;2043709;28;3969;-78
2021/06/19 04:46:20;;;;;;;;;;;;;;;25.37;53.39;100893.78;2045286;28;4046;-79
2021/06/19 04:47:47;;;;;;;;;;;;;;;25.37;53.59;100890.91;2044805;28;4060;-78
2021/06/19 04:49:14;;;;;;;;;;;;;;;25.38;53.54;100897.47;2045122;28;4118;-78
2021/06/19 04:50:40;;;;;;;;;;;;;;;25.37;53.56;100898.69;2045064;28;4098;-78
2021/06/19 04:52:06;;;;;;;;;;;;;;;25.37;53.40;100888.03;2045315;28;4153;-78
2021/06/19 04:53:33;;;;;;;;;;;;;;;25.37;53.46;100892.94;2044533;28;4263;-79
2021/06/19 04:54:59;;;;;;;;;;;;;;;25.36;53.49;100897.84;2045215;28;3922;-79
2021/06/19 04:56:26;;;;;;;;;;;;;;;25.37;53.53;100893.78;2045113;28;4001;-79
2021/06/19 04:57:55;;;;;;;;;;;;;;;25.37;53.66;100892.94;2045668;28;4091;-79
2021/06/19 04:59:21;;;;;;;;;;;;;;;25.36;53.64;100903.56;2045404;28;3916;-78
2021/06/19 05:00:48;;;;;;;;;;;;;;;25.37;53.54;100907.28;2044448;28;4250;-78
2021/06/19 05:02:15;;;;;;;;;;;;;;;25.38;53.67;100900.31;2044816;28;3920;-78
2021/06/19 05:03:42;;;;;;;;;;;;;;;25.37;53.68;100910.97;2045305;28;4038;-78
2021/06/19 05:05:07;;;;;;;;;;;;;;;25.37;53.69;100901.53;2044669;28;4196;-79
2021/06/19 05:06:34;;;;;;;;;;;;;;;25.37;53.70;100898.69;2045517;28;4183;-78
2021/06/19 05:08:01;;;;;;;;;;;;;;;25.37;53.71;100901.53;2045154;28;4068;-79
2021/06/19 05:09:27;;;;;;;;;;;;;;;25.36;53.74;100897.00;2045342;28;4028;-79
2021/06/19 05:10:54;;;;;;;;;;;;;;;25.36;53.71;100897.84;2045792;28;3977;-79
2021/06/19 05:12:19;;;;;;;;;;;;;;;25.37;53.58;100898.69;2045733;28;4029;-78
2021/06/19 05:13:46;;;;;;;;;;;;;;;25.36;53.69;100902.75;2045618;28;4036;-78
2021/06/19 05:15:13;;;;;;;;;;;;;;;25.36;53.74;100902.75;2044696;28;4020;-78
2021/06/19 05:16:40;;;;;;;;;;;;;;;25.36;53.85;100902.75;2044322;28;4081;-74
2021/06/19 05:18:06;;;;;;;;;;;;;;;25.37;53.68;100913.00;2045460;28;4104;-76
2021/06/19 05:19:32;;;;;;;;;;;;;;;25.36;53.81;100906.41;2044987;28;4205;-76
2021/06/19 05:20:59;;;;;;;;;;;;;;;25.37;53.91;100910.13;2044740;28;3900;-76
2021/06/19 05:22:25;;;;;;;;;;;;;;;25.36;53.88;100903.56;2045766;28;4035;-76
2021/06/19 05:23:51;;;;;;;;;;;;;;;25.35;53.69;100899.03;2045124;28;4088;-75
2021/06/19 05:25:18;;;;;;;;;;;;;;;25.36;53.96;100902.75;2044254;28;4145;-75
2021/06/19 05:26:44;;;;;;;;;;;;;;;25.37;53.98;100896.63;2044736;28;4066;-76
2021/06/19 05:28:11;;;;;;;;;;;;;;;25.36;53.79;100903.56;2044379;28;4124;-76
2021/06/19 05:29:37;;;;;;;;;;;;;;;25.37;54.02;100905.22;2044289;28;4240;-75
2021/06/19 05:31:04;;;;;;;;;;;;;;;25.36;54.06;100900.69;2045204;28;4058;-75
2021/06/19 05:32:30;;;;;;;;;;;;;;;25.36;53.98;100902.75;2044052;28;4090;-75
2021/06/19 05:33:57;;;;;;;;;;;;;;;25.37;53.82;100901.53;2045064;28;3928;-76
2021/06/19 05:35:24;;;;;;;;;;;;;;;25.36;54.05;100894.13;2044933;28;3885;-76
2021/06/19 05:36:50;;;;;;;;;;;;;;;25.36;54.10;100903.56;2045054;28;4064;-77
2021/06/19 05:38:18;;;;;;;;;;;;;;;25.36;54.06;100897.84;2045654;28;3968;-77
2021/06/19 05:39:44;;;;;;;;;;;;;;;25.37;53.96;100910.13;2044800;28;4210;-76
2021/06/19 05:41:11;;;;;;;;;;;;;;;25.36;54.14;100900.69;2045863;28;3897;-77
2021/06/19 05:42:38;;;;;;;;;;;;;;;25.36;54.17;100906.41;2044496;28;4026;-76
2021/06/19 05:44:08;;;;;;;;;;;;;;;25.37;54.14;100895.81;2044369;28;3920;-76
2021/06/19 05:45:34;;;;;;;;;;;;;;;25.36;54.20;100903.56;2043850;28;4071;-76
2021/06/19 05:47:02;;;;;;;;;;;;;;;25.37;54.23;100901.53;2043936;28;3835;-76
2021/06/19 05:48:38;;;;;;;;;;;;;;;25.36;54.14;100894.97;2044484;28;4235;-77
2021/06/19 05:50:05;;;;;;;;;;;;;;;25.37;54.29;100905.22;2043660;28;4151;-76
2021/06/19 05:51:32;;;;;;;;;;;;;;;25.37;54.16;100901.53;2044183;28;4102;-79
2021/06/19 05:52:59;;;;;;;;;;;;;;;25.37;54.21;100901.53;2044698;28;4071;-78
2021/06/19 05:54:26;;;;;;;;;;;;;;;25.37;54.22;100902.38;2045321;28;4201;-75
2021/06/19 05:55:53;;;;;;;;;;;;;;;25.36;54.13;100897.00;2044253;28;4326;-81
2021/06/19 05:57:20;;;;;;;;;;;;;;;25.36;54.32;100903.56;2053121;28;4232;-75
2021/06/19 05:58:46;;;;;;;;;;;;;;;25.36;54.31;100903.56;2058901;28;5267;-75
2021/06/19 06:00:13;;;;;;;;;;;;;;;25.36;54.30;100897.00;2060829;28;4269;-76
2021/06/19 06:01:39;;;;;;;;;;;;;;;25.37;54.35;100901.53;2059685;28;4194;-75
2021/06/19 06:03:06;;;;;;;;;;;;;;;25.37;54.40;100901.53;2060404;28;3933;-75
2021/06/19 06:04:33;;;;;;;;;;;;;;;25.37;54.39;100898.69;2059258;28;4063;-76
2021/06/19 06:05:59;;;;;;;;;;;;;;;25.37;54.34;100901.53;2061064;28;4099;-76
2021/06/19 06:07:26;;;;;;;;;;;;;;;25.36;54.27;100897.84;2060567;28;4026;-75
2021/06/19 06:08:53;;;;;;;;;;;;;;;25.37;54.44;100901.53;2061093;28;4247;-75
2021/06/19 06:10:19;;;;;;;;;;;;;;;25.37;54.30;100910.97;2062043;28;4075;-77
2021/06/19 06:11:50;;;;;;;;;;;;;;;25.37;54.47;100898.69;2061984;28;4033;-77
2021/06/19 06:13:17;;;;;;;;;;;;;;;25.36;54.32;100900.69;2062009;28;4066;-77
2021/06/19 06:14:43;;;;;;;;;;;;;;;25.37;54.44;100904.41;2060845;28;4201;-76
2021/06/19 06:16:10;;;;;;;;;;;;;;;25.36;54.45;100900.69;2062830;28;3921;-77
2021/06/19 06:17:37;;;;;;;;;;;;;;;25.37;54.34;100899.50;2061768;28;4212;-77
2021/06/19 06:19:04;;;;;;;;;;;;;;;25.37;54.41;100910.13;2062570;28;3938;-76
2021/06/19 06:20:30;;;;;;;;;;;;;;;25.37;54.57;100904.41;2061755;28;4036;-77
2021/06/19 06:21:56;;;;;;;;;;;;;;;25.37;54.51;100904.41;2061984;28;3922;-77
2021/06/19 06:23:23;;;;;;;;;;;;;;;25.37;54.39;100910.13;2062506;28;4242;-78
2021/06/19 06:24:49;;;;;;;;;;;;;;;25.36;54.46;100903.56;2060569;28;4201;-77
2021/06/19 06:26:15;;;;;;;;;;;;;;;25.37;54.44;100901.53;2061909;28;4019;-77
2021/06/19 06:27:42;;;;;;;;;;;;;;;25.36;54.54;100903.56;2062136;28;4171;-77
2021/06/19 06:29:09;;;;;;;;;;;;;;;25.36;54.55;100900.69;2060439;28;3917;-80
2021/06/19 06:30:48;;;;;;;;;;;;;;;25.38;54.43;100917.50;2061250;28;4060;-77
2021/06/19 06:32:15;;;;;;;;;;;;;;;25.37;54.58;100908.09;2061658;28;4036;-75
2021/06/19 06:33:41;;;;;;;;;;;;;;;25.37;54.62;100904.41;2062388;28;4058;-76
2021/06/19 06:35:09;;;;;;;;;;;;;;;25.37;54.52;100908.09;2060814;28;3876;-76
2021/06/19 06:36:36;;;;;;;;;;;;;;;25.37;54.64;100901.53;2062170;28;4203;-76
2021/06/19 06:38:03;;;;;;;;;;;;;;;25.38;54.60;100908.91;2061819;28;3909;-75
2021/06/19 06:39:29;;;;;;;;;;;;;;;25.38;54.54;100911.78;2061947;28;4184;-77
2021/06/19 06:40:55;;;;;;;;;;;;;;;25.38;54.71;100921.19;2061125;28;4132;-74
2021/06/19 06:42:22;;;;;;;;;;;;;;;25.37;54.46;100913.00;2062244;28;3858;-74
2021/06/19 06:43:48;;;;;;;;;;;;;;;25.37;54.63;100916.69;2060532;28;4213;-79
2021/06/19 06:45:15;;;;;;;;;;;;;;;25.38;54.54;100921.19;2061375;28;4128;-75
2021/06/19 06:46:47;;;;;;;;;;;;;;;25.38;54.50;100911.78;2060725;28;4224;-74
2021/06/19 06:48:14;;;;;;;;;;;;;;;25.39;54.59;100919.16;2061865;28;4374;-74
2021/06/19 06:49:42;;;;;;;;;;;;;;;25.38;54.66;100921.19;2061117;28;4213;-74
2021/06/19 06:51:09;;;;;;;;;;;;;;;25.37;54.64;100919.56;2061526;28;3894;-77
2021/06/19 06:52:36;;;;;;;;;;;;;;;25.37;54.64;100922.41;2062326;28;4126;-76
2021/06/19 06:54:02;;;;;;;;;;;;;;;25.39;54.66;100910.56;2062586;28;5060;-80
2021/06/19 06:55:28;;;;;;;;;;;;;;;25.38;54.69;100918.34;2061166;28;6994;-83
2021/06/19 06:56:55;;;;;;;;;;;;;;;25.38;54.71;100915.47;2062421;28;4091;-82
2021/06/19 06:58:24;;;;;;;;;;;;;;;25.39;54.53;100919.16;2060366;28;4042;-71
2021/06/19 06:59:50;;;;;;;;;;;;;;;25.38;54.67;100920.38;2061690;28;3905;-76
2021/06/19 07:01:17;;;;;;;;;;;;;;;25.38;54.77;100917.50;2061220;28;4072;-73
2021/06/19 07:02:43;;;;;;;;;;;;;;;25.38;54.66;100917.50;2061893;28;4251;-85
2021/06/19 07:04:10;;;;;;;;;;;;;;;25.39;54.74;100919.16;2061392;28;4059;-85
2021/06/19 07:05:36;;;;;;;;;;;;;;;25.39;54.56;100919.16;2061102;28;4202;-84
2021/06/19 07:07:02;;;;;;;;;;;;;;;25.39;54.72;100911.41;2060248;28;4063;-84
2021/06/19 07:08:29;;;;;;;;;;;;;;;25.38;54.69;100911.78;2062493;28;4070;-82
2021/06/19 07:09:56;;;;;;;;;;;;;;;25.38;54.69;100915.47;2061805;28;4298;-80
2021/06/19 07:11:23;;;;;;;;;;;;;;;25.38;54.65;100915.47;2062014;28;3778;-78
2021/06/19 07:12:49;;;;;;;;;;;;;;;25.38;54.72;100906.06;2061258;28;4049;-77
2021/06/19 07:14:16;;;;;;;;;;;;;;;25.38;54.61;100903.19;2061090;28;3874;-75
2021/06/19 07:15:44;;;;;;;;;;;;;;;25.38;54.78;100909.75;2064476;28;4129;-78
2021/06/19 07:17:11;;;;;;;;;;;;;;;25.38;54.76;100906.06;2058240;28;4075;-77
2021/06/19 07:18:37;;;;;;;;;;;;;;;25.38;54.60;100900.31;2059785;28;4648;-84
2021/06/19 07:20:03;;;;;;;;;;;;;;;25.39;54.59;100901.97;2060298;28;4066;-77
2021/06/19 07:21:30;;;;;;;;;;;;;;;25.39;54.71;100904.84;2062235;28;4212;-88
2021/06/19 07:22:57;;;;;;;;;;;;;;;25.40;54.74;100909.38;2060597;28;4154;-81
2021/06/19 07:24:24;;;;;;;;;;;;;;;25.39;54.75;100904.84;2061335;28;4013;-74
2021/06/19 07:25:52;;;;;;;;;;;;;;;25.39;54.48;100905.69;2060958;28;4231;-75
2021/06/19 07:27:18;;;;;;;;;;;;;;;25.39;54.54;100907.69;2060562;28;3954;-73
2021/06/19 07:28:45;;;;;;;;;;;;;;;25.40;54.69;100903.66;2061787;28;4053;-74
2021/06/19 07:30:11;;;;;;;;;;;;;;;25.39;54.80;100905.69;2061295;28;3888;-74
2021/06/19 07:31:38;;;;;;;;;;;;;;;25.40;54.84;100903.66;2060397;28;4027;-73
2021/06/19 07:33:04;;;;;;;;;;;;;;;25.39;54.62;100905.69;2060741;28;4403;-76
2021/06/19 07:34:30;;;;;;;;;;;;;;;25.39;54.61;100899.09;2060832;28;4212;-72